createdAt,value
2023-03-15T00:00:02.536Z,1.60
2023-03-15T00:02:31.521Z,1.50
2023-03-15T00:04:59.944Z,1.40
2023-03-15T00:07:28.559Z,1.53
2023-03-15T00:09:57.039Z,1.40
2023-03-15T00:12:26.817Z,1.67
2023-03-15T00:14:55.289Z,1.50
2023-03-15T00:17:23.841Z,1.40
2023-03-15T00:19:52.225Z,1.40
2023-03-15T00:22:23.323Z,1.37
2023-03-15T00:24:51.802Z,1.40
2023-03-15T00:27:20.294Z,1.63
2023-03-15T00:29:50.203Z,1.27
2023-03-15T00:32:18.628Z,1.30
2023-03-15T00:34:49.350Z,1.20
2023-03-15T00:37:19.836Z,1.30
2023-03-15T00:39:48.477Z,1.30
2023-03-15T00:42:17.429Z,1.30
2023-03-15T00:44:46.489Z,1.30
2023-03-15T00:47:16.608Z,1.30
2023-03-15T00:49:45.565Z,1.30
2023-03-15T00:52:14.149Z,1.20
2023-03-15T00:54:43.644Z,1.40
2023-03-15T00:57:12.188Z,1.47
2023-03-15T00:59:40.617Z,1.30
2023-03-15T01:02:09.156Z,1.30
2023-03-15T01:04:39.113Z,1.60
2023-03-15T01:07:07.538Z,1.50
2023-03-15T01:09:35.938Z,1.53
2023-03-15T01:12:04.304Z,1.87
2023-03-15T01:14:35.354Z,1.70
2023-03-15T01:17:03.728Z,1.93
2023-03-15T01:19:32.155Z,1.80
2023-03-15T01:22:01.936Z,2.17
2023-03-15T01:24:30.571Z,2.20
2023-03-15T01:26:58.949Z,2.00
2023-03-15T01:29:27.565Z,1.93
2023-03-15T01:31:56.006Z,1.90
2023-03-15T01:34:24.482Z,1.67
2023-03-15T01:36:53.975Z,1.97
2023-03-15T01:39:24.109Z,1.77
2023-03-15T01:41:52.503Z,1.47
2023-03-15T01:44:21.962Z,1.60
2023-03-15T01:46:50.375Z,1.60
2023-03-15T01:49:22.968Z,1.63
2023-03-15T01:51:53.388Z,1.60
2023-03-15T01:54:23.631Z,1.30
2023-03-15T01:56:54.707Z,1.50
2023-03-15T01:59:25.682Z,1.30
2023-03-15T02:01:55.398Z,1.23
2023-03-15T02:04:26.164Z,1.30
2023-03-15T02:06:59.332Z,1.20
2023-03-15T02:09:29.580Z,1.40
2023-03-15T02:11:59.480Z,1.40
2023-03-15T02:14:28.022Z,1.40
2023-03-15T02:16:56.699Z,1.40
2023-03-15T02:19:30.669Z,1.40
2023-03-15T02:22:03.604Z,1.30
2023-03-15T02:24:37.119Z,1.40
2023-03-15T02:27:07.371Z,1.40
2023-03-15T02:29:37.359Z,1.20
2023-03-15T02:32:05.906Z,1.40
2023-03-15T02:34:34.415Z,1.50
2023-03-15T02:37:02.806Z,1.60
2023-03-15T02:39:32.021Z,1.53
2023-03-15T02:42:01.952Z,1.80
2023-03-15T02:44:32.060Z,1.70
2023-03-15T02:47:05.190Z,1.60
2023-03-15T02:49:34.947Z,1.83
2023-03-15T02:52:03.330Z,1.90
2023-03-15T02:54:34.353Z,1.53
2023-03-15T02:57:02.801Z,1.67
2023-03-15T02:59:31.309Z,1.70
2023-03-15T03:01:59.900Z,2.27
2023-03-15T03:04:30.035Z,2.23
2023-03-15T03:06:58.438Z,2.73
2023-03-15T03:09:27.038Z,2.80
2023-03-15T03:11:55.462Z,2.20
2023-03-15T03:14:24.736Z,2.60
2023-03-15T03:16:53.402Z,2.70
2023-03-15T03:19:25.625Z,2.50
2023-03-15T03:21:56.759Z,2.27
2023-03-15T03:24:25.905Z,1.90
2023-03-15T03:26:58.124Z,1.60
2023-03-15T03:29:27.034Z,1.50
2023-03-15T03:31:55.477Z,1.30
2023-03-15T03:34:23.960Z,1.40
2023-03-15T03:36:52.381Z,1.10
2023-03-15T03:39:22.434Z,1.50
2023-03-15T03:41:51.049Z,1.40
2023-03-15T03:44:19.689Z,1.20
2023-03-15T03:46:48.080Z,1.40
2023-03-15T03:49:16.460Z,1.20
2023-03-15T03:51:44.830Z,1.13
2023-03-15T03:54:13.253Z,1.10
2023-03-15T03:56:43.133Z,0.90
2023-03-15T03:59:11.512Z,1.00
2023-03-15T04:01:40.107Z,1.10
2023-03-15T04:04:08.501Z,1.30
2023-03-15T04:06:37.085Z,1.50
2023-03-15T04:09:05.561Z,1.50
2023-03-15T04:11:36.319Z,1.57
2023-03-15T04:14:06.107Z,1.70
2023-03-15T04:16:34.506Z,1.93
2023-03-15T04:19:03.279Z,1.90
2023-03-15T04:21:32.320Z,1.90
2023-03-15T04:24:00.747Z,1.63
2023-03-15T04:26:29.238Z,1.30
2023-03-15T04:28:58.022Z,1.20
2023-03-15T04:31:28.195Z,1.33
2023-03-15T04:33:56.832Z,1.30
2023-03-15T04:36:25.456Z,1.50
2023-03-15T04:39:04.685Z,1.50
2023-03-15T04:41:34.809Z,1.70
2023-03-15T04:44:04.625Z,1.70
2023-03-15T04:46:34.863Z,1.80
2023-03-15T04:49:05.071Z,2.17
2023-03-15T04:51:34.470Z,2.30
2023-03-15T04:54:03.083Z,2.30
2023-03-15T04:56:32.132Z,2.63
2023-03-15T04:59:00.708Z,2.70
2023-03-15T05:01:31.327Z,3.10
2023-03-15T05:04:01.125Z,3.30
2023-03-15T05:06:29.957Z,3.00
2023-03-15T05:08:58.455Z,3.13
2023-03-15T05:11:26.896Z,3.27
2023-03-15T05:13:55.285Z,3.00
2023-03-15T05:16:23.727Z,2.67
2023-03-15T05:18:52.189Z,2.73
2023-03-15T05:21:21.960Z,2.37
2023-03-15T05:23:50.353Z,2.20
2023-03-15T05:26:18.736Z,2.10
2023-03-15T05:28:47.212Z,2.00
2023-03-15T05:31:15.656Z,1.70
2023-03-15T05:33:46.974Z,2.30
2023-03-15T05:36:15.595Z,1.93
2023-03-15T05:38:45.805Z,1.80
2023-03-15T05:41:18.141Z,1.60
2023-03-15T05:43:46.706Z,1.63
2023-03-15T05:46:15.347Z,1.70
2023-03-15T05:48:43.779Z,1.70
2023-03-15T05:51:13.329Z,1.50
2023-03-15T05:53:41.757Z,1.70
2023-03-15T05:56:11.681Z,1.60
2023-03-15T05:58:40.314Z,1.70
2023-03-15T06:01:09.163Z,1.77
2023-03-15T06:03:37.567Z,2.00
2023-03-15T06:06:06.208Z,1.70
2023-03-15T06:08:34.634Z,1.50
2023-03-15T06:11:03.014Z,1.80
2023-03-15T06:13:33.342Z,1.70
2023-03-15T06:16:01.711Z,1.70
2023-03-15T06:18:31.073Z,1.70
2023-03-15T06:20:59.512Z,1.77
2023-03-15T06:23:27.920Z,2.10
2023-03-15T06:25:56.335Z,2.07
2023-03-15T06:28:24.766Z,1.73
2023-03-15T06:30:54.602Z,1.50
2023-03-15T06:33:24.387Z,1.50
2023-03-15T06:35:52.828Z,1.77
2023-03-15T06:38:21.404Z,1.60
2023-03-15T06:40:49.962Z,1.70
2023-03-15T06:43:19.809Z,1.77
2023-03-15T06:45:48.385Z,1.53
2023-03-15T06:48:18.530Z,1.40
2023-03-15T06:50:48.003Z,1.83
2023-03-15T06:53:16.795Z,1.97
2023-03-15T06:55:45.254Z,2.10
2023-03-15T06:58:14.061Z,2.03
2023-03-15T07:00:42.462Z,2.50
2023-03-15T07:03:10.893Z,2.23
2023-03-15T07:05:40.684Z,2.20
2023-03-15T07:08:09.115Z,2.00
2023-03-15T07:10:37.598Z,2.03
2023-03-15T07:13:07.210Z,2.57
2023-03-15T07:15:37.690Z,2.57
2023-03-15T07:18:06.179Z,2.20
2023-03-15T07:20:37.386Z,2.30
2023-03-15T07:23:07.418Z,2.77
2023-03-15T07:25:48.321Z,2.00
2023-03-15T07:28:20.668Z,1.80
2023-03-15T07:30:54.393Z,2.10
2023-03-15T07:33:23.564Z,1.87
2023-03-15T07:35:52.124Z,1.80
2023-03-15T07:38:21.910Z,2.20
2023-03-15T07:40:50.355Z,1.77
2023-03-15T07:43:18.789Z,1.93
2023-03-15T07:45:47.323Z,1.83
2023-03-15T07:48:16.013Z,1.80
2023-03-15T07:50:44.477Z,1.77
2023-03-15T07:53:12.940Z,1.80
2023-03-15T07:55:42.717Z,2.13
2023-03-15T07:58:11.492Z,1.47
2023-03-15T08:00:39.908Z,1.90
2023-03-15T08:03:08.374Z,2.17
2023-03-15T08:05:36.964Z,1.87
2023-03-15T08:08:05.402Z,1.60
2023-03-15T08:10:33.818Z,1.40
2023-03-15T08:13:03.564Z,1.47
2023-03-15T08:15:32.236Z,1.53
2023-03-15T08:18:00.819Z,1.60
2023-03-15T08:20:29.941Z,1.83
2023-03-15T08:22:58.671Z,1.30
2023-03-15T08:25:27.467Z,1.70
2023-03-15T08:27:55.875Z,1.60
2023-03-15T08:30:25.722Z,1.80
2023-03-15T08:32:54.123Z,1.70
2023-03-15T08:35:23.280Z,1.80
2023-03-15T08:37:52.734Z,1.90
2023-03-15T08:40:24.935Z,1.60
2023-03-15T08:42:53.619Z,1.80
2023-03-15T08:45:24.004Z,1.60
2023-03-15T08:47:55.989Z,1.70
2023-03-15T08:50:24.700Z,3.30
2023-03-15T08:52:53.073Z,2.63
2023-03-15T08:55:21.522Z,2.07
2023-03-15T08:57:49.928Z,1.90
2023-03-15T09:00:22.738Z,1.93
2023-03-15T09:02:52.095Z,3.93
2023-03-15T09:05:22.726Z,4.57
2023-03-15T09:07:53.108Z,3.00
2023-03-15T09:10:22.192Z,2.70
2023-03-15T09:12:52.182Z,4.27
2023-03-15T09:15:21.719Z,5.17
2023-03-15T09:17:51.682Z,2.70
2023-03-15T09:20:22.881Z,2.50
2023-03-15T09:22:54.313Z,7.93
2023-03-15T09:25:23.301Z,6.63
2023-03-15T09:27:52.024Z,3.80
2023-03-15T09:30:21.086Z,3.77
2023-03-15T09:32:49.614Z,10.27
2023-03-15T09:35:18.678Z,5.97
2023-03-15T09:37:47.475Z,3.50
2023-03-15T09:40:21.091Z,6.53
2023-03-15T09:42:57.768Z,11.77
2023-03-15T09:45:29.614Z,5.77
2023-03-15T09:48:03.024Z,3.63
2023-03-15T09:50:33.396Z,10.90
2023-03-15T09:53:04.034Z,8.60
2023-03-15T09:55:33.808Z,5.13
2023-03-15T09:58:03.384Z,6.80
2023-03-15T10:00:35.695Z,16.17
2023-03-15T10:03:07.386Z,9.07
2023-03-15T10:05:39.515Z,5.27
2023-03-15T10:08:12.114Z,14.33
2023-03-15T10:10:44.966Z,10.27
2023-03-15T10:13:20.505Z,4.87
2023-03-15T10:15:55.391Z,5.60
2023-03-15T10:18:27.946Z,20.20
2023-03-15T10:20:59.471Z,10.73
2023-03-15T10:23:33.752Z,5.73
2023-03-15T10:26:05.976Z,16.13
2023-03-15T10:28:37.608Z,14.97
2023-03-15T10:31:22.294Z,8.73
2023-03-15T10:33:55.422Z,10.67
2023-03-15T10:36:24.598Z,20.03
2023-03-15T10:38:53.984Z,11.83
2023-03-15T10:41:32.103Z,6.40
2023-03-15T10:44:02.048Z,13.97
2023-03-15T10:46:30.940Z,12.97
2023-03-15T10:49:00.261Z,7.97
2023-03-15T10:51:29.988Z,6.03
2023-03-15T10:54:00.410Z,20.17
2023-03-15T10:56:29.889Z,14.90
2023-03-15T10:59:12.351Z,6.83
2023-03-15T11:01:41.846Z,17.40
2023-03-15T11:04:16.553Z,15.40
2023-03-15T11:06:46.604Z,8.40
2023-03-15T11:09:16.196Z,9.63
2023-03-15T11:11:51.502Z,21.03
2023-03-15T11:14:21.488Z,14.00
2023-03-15T11:16:51.153Z,8.67
2023-03-15T11:19:21.018Z,16.27
2023-03-15T11:21:50.780Z,17.30
2023-03-15T11:24:24.817Z,12.50
2023-03-15T11:26:55.024Z,8.27
2023-03-15T11:29:26.738Z,21.37
2023-03-15T11:31:55.603Z,15.13
2023-03-15T11:34:27.978Z,7.03
2023-03-15T11:37:08.108Z,15.97
2023-03-15T11:39:45.528Z,14.80
2023-03-15T11:42:16.439Z,10.37
2023-03-15T11:44:48.435Z,18.23
2023-03-15T11:47:20.455Z,15.03
2023-03-15T11:49:51.599Z,8.03
2023-03-15T11:52:20.390Z,16.77
2023-03-15T11:54:49.037Z,14.03
2023-03-15T11:57:36.141Z,7.40
2023-03-15T12:00:19.525Z,15.13
2023-03-15T12:02:51.013Z,14.63
2023-03-15T12:05:38.037Z,7.57
2023-03-15T12:08:19.006Z,17.17
2023-03-15T12:10:48.258Z,15.80
2023-03-15T12:13:25.368Z,8.60
2023-03-15T12:15:55.401Z,15.37
2023-03-15T12:18:27.306Z,11.93
2023-03-15T12:21:07.020Z,10.60
2023-03-15T12:23:38.895Z,16.77
2023-03-15T12:26:08.568Z,13.57
2023-03-15T12:28:37.609Z,8.90
2023-03-15T12:31:08.517Z,17.23
2023-03-15T12:33:47.516Z,15.10
2023-03-15T12:36:21.648Z,12.77
2023-03-15T12:39:01.160Z,19.70
2023-03-15T12:41:37.263Z,14.63
2023-03-15T12:44:24.520Z,11.90
2023-03-15T12:46:58.742Z,14.60
2023-03-15T12:49:31.673Z,9.40
2023-03-15T12:52:01.238Z,11.53
2023-03-15T12:54:33.384Z,16.50
2023-03-15T12:57:03.104Z,11.20
2023-03-15T12:59:33.890Z,11.70
2023-03-15T13:02:04.526Z,19.50
2023-03-15T13:04:33.126Z,13.73
2023-03-15T13:07:19.841Z,12.47
2023-03-15T13:09:55.709Z,18.40
2023-03-15T13:12:27.384Z,13.97
2023-03-15T13:14:58.586Z,14.93
2023-03-15T13:17:34.024Z,16.77
2023-03-15T13:20:13.746Z,12.03
2023-03-15T13:22:55.397Z,6.10
2023-03-15T13:25:28.135Z,15.20
2023-03-15T13:27:57.455Z,15.13
2023-03-15T13:30:43.549Z,9.13
2023-03-15T13:33:21.306Z,9.13
2023-03-15T13:35:50.854Z,14.80
2023-03-15T13:38:25.961Z,10.73
2023-03-15T13:40:54.796Z,4.90
2023-03-15T13:43:27.036Z,13.60
2023-03-15T13:45:58.299Z,13.37
2023-03-15T13:48:30.351Z,7.70
2023-03-15T13:51:04.385Z,9.40
2023-03-15T13:53:48.489Z,16.93
2023-03-15T13:56:18.850Z,11.83
2023-03-15T13:58:47.424Z,5.47
2023-03-15T14:01:16.454Z,18.03
2023-03-15T14:03:49.524Z,20.30
2023-03-15T14:06:23.261Z,10.20
2023-03-15T14:08:54.691Z,5.67
2023-03-15T14:11:34.969Z,19.23
2023-03-15T14:14:05.465Z,17.67
2023-03-15T14:16:34.886Z,9.90
2023-03-15T14:19:16.509Z,10.90
2023-03-15T14:21:45.636Z,22.20
2023-03-15T14:24:17.763Z,16.57
2023-03-15T14:26:46.312Z,21.20
2023-03-15T14:29:18.709Z,31.53
2023-03-15T14:31:49.499Z,27.13
2023-03-15T14:34:23.852Z,16.40
2023-03-15T14:36:54.208Z,17.03
2023-03-15T14:39:27.257Z,30.17
2023-03-15T14:41:55.672Z,43.50
2023-03-15T14:44:24.081Z,27.23
2023-03-15T14:46:52.532Z,14.93
2023-03-15T14:49:24.238Z,23.97
2023-03-15T14:51:54.909Z,28.37
2023-03-15T14:54:23.474Z,19.70
2023-03-15T14:56:52.086Z,20.70
2023-03-15T14:59:20.766Z,22.80
2023-03-15T15:01:51.249Z,14.43
2023-03-15T15:04:19.995Z,18.13
2023-03-15T15:06:52.775Z,18.43
2023-03-15T15:09:23.619Z,14.37
2023-03-15T15:11:52.515Z,19.57
2023-03-15T15:14:22.025Z,20.87
2023-03-15T15:16:51.917Z,15.60
2023-03-15T15:19:20.626Z,25.33
2023-03-15T15:21:50.552Z,18.97
2023-03-15T15:24:28.216Z,16.87
2023-03-15T15:26:56.671Z,23.33
2023-03-15T15:29:25.336Z,23.20
2023-03-15T15:31:53.941Z,22.60
2023-03-15T15:34:22.374Z,31.23
2023-03-15T15:36:52.159Z,25.33
2023-03-15T15:39:23.728Z,17.50
2023-03-15T15:41:52.257Z,24.00
2023-03-15T15:44:21.424Z,26.27
2023-03-15T15:46:50.144Z,17.57
2023-03-15T15:49:19.451Z,20.90
2023-03-15T15:51:49.731Z,25.43
2023-03-15T15:54:20.888Z,19.73
2023-03-15T15:56:51.041Z,23.40
2023-03-15T15:59:19.917Z,29.43
2023-03-15T16:02:00.241Z,25.37
2023-03-15T16:04:29.388Z,26.10
2023-03-15T16:06:59.010Z,26.37
2023-03-15T16:09:30.136Z,20.70
2023-03-15T16:11:58.819Z,23.13
2023-03-15T16:14:27.277Z,21.87
2023-03-15T16:16:55.683Z,18.57
2023-03-15T16:19:24.091Z,17.23
2023-03-15T16:21:54.437Z,17.10
2023-03-15T16:24:23.702Z,19.17
2023-03-15T16:26:55.596Z,12.77
2023-03-15T16:29:27.325Z,14.50
2023-03-15T16:31:59.181Z,16.33
2023-03-15T16:34:34.488Z,13.50
2023-03-15T16:37:03.328Z,16.20
2023-03-15T16:39:32.991Z,15.17
2023-03-15T16:42:02.830Z,9.43
2023-03-15T16:44:31.248Z,10.00
2023-03-15T16:46:59.618Z,10.43
2023-03-15T16:49:28.039Z,8.17
2023-03-15T16:51:56.479Z,11.77
2023-03-15T16:54:40.216Z,11.53
2023-03-15T16:57:14.251Z,9.17
2023-03-15T16:59:42.618Z,14.43
2023-03-15T17:02:17.319Z,18.63
2023-03-15T17:04:45.788Z,21.50
2023-03-15T17:07:15.054Z,19.70
2023-03-15T17:09:44.060Z,20.67
2023-03-15T17:12:17.830Z,20.47
2023-03-15T17:14:46.293Z,18.67
2023-03-15T17:17:14.695Z,17.60
2023-03-15T17:19:43.878Z,18.67
2023-03-15T17:22:12.516Z,18.53
2023-03-15T17:24:41.514Z,18.53
2023-03-15T17:27:16.590Z,17.63
2023-03-15T17:29:46.500Z,18.17
2023-03-15T17:32:14.930Z,18.87
2023-03-15T17:34:47.171Z,17.20
2023-03-15T17:37:15.885Z,17.93
2023-03-15T17:39:45.640Z,17.13
2023-03-15T17:42:14.904Z,17.40
2023-03-15T17:44:43.339Z,15.93
2023-03-15T17:47:13.864Z,10.97
2023-03-15T17:49:42.334Z,8.17
2023-03-15T17:52:14.279Z,6.77
2023-03-15T17:54:42.768Z,5.87
2023-03-15T17:57:12.309Z,4.83
2023-03-15T17:59:40.759Z,3.97
2023-03-15T18:02:12.265Z,3.60
2023-03-15T18:04:42.091Z,3.83
2023-03-15T18:07:10.569Z,3.70
2023-03-15T18:09:39.578Z,3.80
2023-03-15T18:12:10.937Z,3.70
2023-03-15T18:14:39.357Z,3.03
2023-03-15T18:17:07.750Z,2.87
2023-03-15T18:19:36.188Z,2.60
2023-03-15T18:22:06.084Z,2.83
2023-03-15T18:24:34.652Z,2.67
2023-03-15T18:27:03.079Z,2.77
2023-03-15T18:29:31.773Z,2.83
2023-03-15T18:32:00.295Z,2.60
2023-03-15T18:34:28.793Z,2.50
2023-03-15T18:36:57.200Z,2.33
2023-03-15T18:39:27.179Z,2.43
2023-03-15T18:41:55.555Z,2.50
2023-03-15T18:44:24.276Z,2.70
2023-03-15T18:46:53.897Z,2.47
2023-03-15T18:49:22.374Z,2.70
2023-03-15T18:51:55.191Z,2.27
2023-03-15T18:54:24.107Z,2.10
2023-03-15T18:56:53.874Z,1.87
2023-03-15T18:59:25.485Z,2.10
2023-03-15T19:01:54.315Z,1.70
2023-03-15T19:04:22.713Z,2.10
2023-03-15T19:06:51.111Z,2.00
2023-03-15T19:09:19.517Z,2.20
2023-03-15T19:11:47.912Z,2.60
2023-03-15T19:14:18.254Z,2.20
2023-03-15T19:16:46.715Z,2.00
2023-03-15T19:19:15.166Z,2.20
2023-03-15T19:21:43.544Z,2.40
2023-03-15T19:24:11.968Z,2.10
2023-03-15T19:26:40.405Z,2.17
2023-03-15T19:29:08.786Z,2.00
2023-03-15T19:31:39.064Z,2.00
2023-03-15T19:34:07.677Z,2.03
2023-03-15T19:36:36.089Z,1.90
2023-03-15T19:39:07.159Z,2.00
2023-03-15T19:41:35.617Z,2.10
2023-03-15T19:44:04.003Z,1.83
2023-03-15T19:46:32.497Z,1.60
2023-03-15T19:49:02.614Z,2.20
2023-03-15T19:51:30.992Z,1.90
2023-03-15T19:53:59.563Z,2.00
2023-03-15T19:56:27.961Z,2.13
2023-03-15T19:58:57.120Z,2.20
2023-03-15T20:01:25.608Z,2.30
2023-03-15T20:03:54.040Z,2.20
2023-03-15T20:06:23.844Z,2.13
2023-03-15T20:08:52.252Z,2.27
2023-03-15T20:11:25.054Z,2.40
2023-03-15T20:13:53.920Z,2.80
2023-03-15T20:16:23.037Z,2.63
2023-03-15T20:18:52.131Z,2.30
2023-03-15T20:21:20.534Z,2.37
2023-03-15T20:23:50.371Z,2.80
2023-03-15T20:26:20.782Z,2.57
2023-03-15T20:28:49.194Z,2.70
2023-03-15T20:31:18.601Z,2.50
2023-03-15T20:33:49.476Z,2.40
2023-03-15T20:36:18.254Z,2.13
2023-03-15T20:38:48.066Z,2.23
2023-03-15T20:41:19.334Z,2.27
2023-03-15T20:43:48.264Z,2.30
2023-03-15T20:46:19.759Z,2.10
2023-03-15T20:48:49.196Z,2.00
2023-03-15T20:51:18.700Z,2.20
2023-03-15T20:53:47.108Z,2.57
2023-03-15T20:56:16.576Z,2.17
2023-03-15T20:58:47.268Z,2.30
2023-03-15T21:01:16.975Z,2.20
2023-03-15T21:03:46.119Z,2.10
2023-03-15T21:06:15.008Z,2.23
2023-03-15T21:08:43.950Z,2.13
2023-03-15T21:11:12.367Z,1.90
2023-03-15T21:13:40.768Z,2.00
2023-03-15T21:16:11.004Z,1.93
2023-03-15T21:18:39.501Z,1.80
2023-03-15T21:21:08.981Z,1.90
2023-03-15T21:23:38.047Z,2.07
2023-03-15T21:26:07.408Z,1.73
2023-03-15T21:28:36.518Z,1.60
2023-03-15T21:31:05.965Z,1.70
2023-03-15T21:33:35.965Z,1.60
2023-03-15T21:36:04.393Z,1.50
2023-03-15T21:38:33.937Z,1.50
2023-03-15T21:41:02.442Z,1.80
2023-03-15T21:43:31.493Z,1.60
2023-03-15T21:46:01.305Z,1.50
2023-03-15T21:48:30.509Z,1.57
2023-03-15T21:51:01.917Z,1.60
2023-03-15T21:53:30.638Z,1.80
2023-03-15T21:55:59.247Z,1.57
2023-03-15T21:58:27.885Z,1.33
2023-03-15T22:00:59.893Z,1.37
2023-03-15T22:03:28.582Z,1.63
2023-03-15T22:05:57.133Z,1.60
2023-03-15T22:08:27.207Z,1.70
2023-03-15T22:10:55.927Z,1.50
2023-03-15T22:13:24.324Z,1.60
2023-03-15T22:15:53.449Z,1.60
2023-03-15T22:18:22.100Z,1.50
2023-03-15T22:20:51.007Z,1.60
2023-03-15T22:23:19.676Z,1.50
2023-03-15T22:25:49.442Z,1.70
2023-03-15T22:28:17.834Z,1.80
2023-03-15T22:30:48.191Z,1.70
2023-03-15T22:33:16.645Z,1.97
2023-03-15T22:35:45.069Z,1.90
2023-03-15T22:38:13.520Z,2.13
2023-03-15T22:40:43.026Z,2.00
2023-03-15T22:43:12.859Z,1.87
2023-03-15T22:45:41.852Z,1.77
2023-03-15T22:48:10.229Z,1.67
2023-03-15T22:50:38.612Z,1.60
2023-03-15T22:53:07.030Z,1.80
2023-03-15T22:55:35.398Z,1.90
2023-03-15T22:58:03.806Z,1.70
2023-03-15T23:00:33.911Z,2.00
2023-03-15T23:03:02.301Z,1.70
2023-03-15T23:05:30.720Z,1.60
2023-03-15T23:07:59.393Z,1.73
2023-03-15T23:10:27.979Z,2.00
2023-03-15T23:12:56.619Z,2.00
2023-03-15T23:15:25.080Z,1.93
2023-03-15T23:17:55.736Z,1.70
2023-03-15T23:20:25.412Z,1.70
2023-03-15T23:22:54.133Z,1.73
2023-03-15T23:25:23.771Z,1.70
2023-03-15T23:27:52.891Z,1.77
2023-03-15T23:30:21.292Z,1.70
2023-03-15T23:32:52.323Z,1.73
2023-03-15T23:35:22.302Z,1.90
2023-03-15T23:37:50.739Z,1.80
2023-03-15T23:40:20.281Z,2.07
2023-03-15T23:42:52.470Z,2.00
2023-03-15T23:45:20.939Z,1.87
2023-03-15T23:47:49.323Z,1.70
2023-03-15T23:50:17.742Z,2.00
2023-03-15T23:52:47.497Z,1.73
2023-03-15T23:55:15.941Z,1.63
2023-03-15T23:57:44.331Z,1.93
